sensor_id;sensor_type;location;lat;lon;timestamp;temperature;humidity
52769;DHT22;40471;44.534;18.644;2023-08-06T00:00:44;21.60;99.90
52769;DHT22;40471;44.534;18.644;2023-08-06T00:03:09;21.70;99.90
52769;DHT22;40471;44.534;18.644;2023-08-06T00:05:35;21.70;99.90
52769;DHT22;40471;44.534;18.644;2023-08-06T00:08:01;21.70;99.90
52769;DHT22;40471;44.534;18.644;2023-08-06T00:10:27;21.70;99.90
52769;DHT22;40471;44.534;18.644;2023-08-06T00:12:53;21.70;99.90
52769;DHT22;40471;44.534;18.644;2023-08-06T00:15:18;21.80;99.90
52769;DHT22;40471;44.534;18.644;2023-08-06T00:17:44;21.80;99.90
52769;DHT22;40471;44.534;18.644;2023-08-06T00:20:10;21.80;99.90
52769;DHT22;40471;44.534;18.644;2023-08-06T00:22:37;21.90;99.90
52769;DHT22;40471;44.534;18.644;2023-08-06T00:25:03;20.90;99.90
52769;DHT22;40471;44.534;18.644;2023-08-06T00:27:28;21.80;99.90
52769;DHT22;40471;44.534;18.644;2023-08-06T00:29:54;21.80;99.90
52769;DHT22;40471;44.534;18.644;2023-08-06T00:32:20;22.50;99.90
52769;DHT22;40471;44.534;18.644;2023-08-06T00:34:46;21.90;99.90
52769;DHT22;40471;44.534;18.644;2023-08-06T00:37:11;21.80;99.90
52769;DHT22;40471;44.534;18.644;2023-08-06T00:39:37;21.80;99.90
52769;DHT22;40471;44.534;18.644;2023-08-06T00:42:02;21.80;99.90
52769;DHT22;40471;44.534;18.644;2023-08-06T00:44:28;21.70;99.90
52769;DHT22;40471;44.534;18.644;2023-08-06T00:46:54;21.40;99.90
52769;DHT22;40471;44.534;18.644;2023-08-06T00:49:20;21.60;99.90
52769;DHT22;40471;44.534;18.644;2023-08-06T00:51:46;21.50;99.90
52769;DHT22;40471;44.534;18.644;2023-08-06T00:54:12;21.40;99.90
52769;DHT22;40471;44.534;18.644;2023-08-06T00:56:38;21.40;99.90
52769;DHT22;40471;44.534;18.644;2023-08-06T00:59:04;21.40;99.90
52769;DHT22;40471;44.534;18.644;2023-08-06T01:01:30;21.50;99.90
52769;DHT22;40471;44.534;18.644;2023-08-06T01:03:56;21.50;99.90
52769;DHT22;40471;44.534;18.644;2023-08-06T01:06:26;21.50;99.90
52769;DHT22;40471;44.534;18.644;2023-08-06T01:08:58;21.60;99.90
52769;DHT22;40471;44.534;18.644;2023-08-06T01:11:26;21.70;99.90
52769;DHT22;40471;44.534;18.644;2023-08-06T01:14:02;21.70;99.90
52769;DHT22;40471;44.534;18.644;2023-08-06T01:16:27;21.70;99.90
52769;DHT22;40471;44.534;18.644;2023-08-06T01:18:54;21.70;99.90
52769;DHT22;40471;44.534;18.644;2023-08-06T01:21:19;21.70;99.90
52769;DHT22;40471;44.534;18.644;2023-08-06T01:23:45;21.70;99.90
52769;DHT22;40471;44.534;18.644;2023-08-06T01:26:15;21.70;99.90
52769;DHT22;40471;44.534;18.644;2023-08-06T01:31:10;21.80;99.90
52769;DHT22;40471;44.534;18.644;2023-08-06T01:33:39;21.70;99.90
52769;DHT22;40471;44.534;18.644;2023-08-06T01:36:05;21.80;99.90
52769;DHT22;40471;44.534;18.644;2023-08-06T01:38:32;21.70;99.90
52769;DHT22;40471;44.534;18.644;2023-08-06T01:40:57;22.40;99.90
52769;DHT22;40471;44.534;18.644;2023-08-06T01:43:23;21.70;99.90
52769;DHT22;40471;44.534;18.644;2023-08-06T01:45:48;21.70;99.90
52769;DHT22;40471;44.534;18.644;2023-08-06T01:48:14;21.70;99.90
52769;DHT22;40471;44.534;18.644;2023-08-06T01:50:40;21.70;99.90
52769;DHT22;40471;44.534;18.644;2023-08-06T01:53:05;21.60;99.90
52769;DHT22;40471;44.534;18.644;2023-08-06T01:55:31;21.60;99.90
52769;DHT22;40471;44.534;18.644;2023-08-06T01:57:56;21.50;99.90
52769;DHT22;40471;44.534;18.644;2023-08-06T02:00:22;21.30;99.90
52769;DHT22;40471;44.534;18.644;2023-08-06T02:02:48;21.30;99.90
52769;DHT22;40471;44.534;18.644;2023-08-06T02:05:13;20.90;99.90
52769;DHT22;40471;44.534;18.644;2023-08-06T02:07:39;21.20;99.90
52769;DHT22;40471;44.534;18.644;2023-08-06T02:10:05;21.20;99.90
52769;DHT22;40471;44.534;18.644;2023-08-06T02:12:30;21.20;99.90
52769;DHT22;40471;44.534;18.644;2023-08-06T02:14:56;21.20;99.90
52769;DHT22;40471;44.534;18.644;2023-08-06T02:17:22;21.20;99.90
52769;DHT22;40471;44.534;18.644;2023-08-06T02:19:47;22.10;99.90
52769;DHT22;40471;44.534;18.644;2023-08-06T02:22:13;21.10;99.90
52769;DHT22;40471;44.534;18.644;2023-08-06T02:24:38;21.10;99.90
52769;DHT22;40471;44.534;18.644;2023-08-06T02:27:04;21.00;99.90
52769;DHT22;40471;44.534;18.644;2023-08-06T02:29:30;21.00;99.90
52769;DHT22;40471;44.534;18.644;2023-08-06T02:31:55;20.90;99.90
52769;DHT22;40471;44.534;18.644;2023-08-06T02:34:21;21.00;99.90
52769;DHT22;40471;44.534;18.644;2023-08-06T02:36:46;21.00;99.90
52769;DHT22;40471;44.534;18.644;2023-08-06T02:39:12;20.90;99.90
52769;DHT22;40471;44.534;18.644;2023-08-06T02:41:38;20.80;99.90
52769;DHT22;40471;44.534;18.644;2023-08-06T02:44:03;20.80;99.90
52769;DHT22;40471;44.534;18.644;2023-08-06T02:46:29;20.90;99.90
52769;DHT22;40471;44.534;18.644;2023-08-06T02:48:54;21.20;99.90
52769;DHT22;40471;44.534;18.644;2023-08-06T02:51:20;21.10;99.90
52769;DHT22;40471;44.534;18.644;2023-08-06T02:53:47;20.80;99.90
52769;DHT22;40471;44.534;18.644;2023-08-06T02:56:13;20.80;99.90
52769;DHT22;40471;44.534;18.644;2023-08-06T02:58:38;20.90;99.90
52769;DHT22;40471;44.534;18.644;2023-08-06T03:01:05;20.80;99.90
52769;DHT22;40471;44.534;18.644;2023-08-06T03:03:32;20.80;99.90
52769;DHT22;40471;44.534;18.644;2023-08-06T03:05:58;20.80;99.90
52769;DHT22;40471;44.534;18.644;2023-08-06T03:08:24;20.80;99.90
52769;DHT22;40471;44.534;18.644;2023-08-06T03:10:49;20.80;99.90
52769;DHT22;40471;44.534;18.644;2023-08-06T03:13:18;20.70;99.90
52769;DHT22;40471;44.534;18.644;2023-08-06T03:15:57;20.70;99.90
52769;DHT22;40471;44.534;18.644;2023-08-06T03:18:23;20.70;99.90
52769;DHT22;40471;44.534;18.644;2023-08-06T03:20:51;20.90;99.90
52769;DHT22;40471;44.534;18.644;2023-08-06T03:23:16;20.80;99.90
52769;DHT22;40471;44.534;18.644;2023-08-06T03:25:42;20.80;99.90
52769;DHT22;40471;44.534;18.644;2023-08-06T03:28:08;20.80;99.90
52769;DHT22;40471;44.534;18.644;2023-08-06T03:30:33;20.80;99.90
52769;DHT22;40471;44.534;18.644;2023-08-06T03:32:59;20.80;99.90
52769;DHT22;40471;44.534;18.644;2023-08-06T03:35:25;20.90;99.90
52769;DHT22;40471;44.534;18.644;2023-08-06T03:37:50;21.00;99.90
52769;DHT22;40471;44.534;18.644;2023-08-06T03:40:16;21.00;99.90
52769;DHT22;40471;44.534;18.644;2023-08-06T03:42:41;21.20;99.90
52769;DHT22;40471;44.534;18.644;2023-08-06T03:45:07;21.40;99.90
52769;DHT22;40471;44.534;18.644;2023-08-06T03:47:33;21.20;99.90
52769;DHT22;40471;44.534;18.644;2023-08-06T03:49:59;21.10;99.90
52769;DHT22;40471;44.534;18.644;2023-08-06T03:52:24;21.20;99.90
52769;DHT22;40471;44.534;18.644;2023-08-06T03:54:50;21.20;99.90
52769;DHT22;40471;44.534;18.644;2023-08-06T03:57:15;21.10;99.90
52769;DHT22;40471;44.534;18.644;2023-08-06T03:59:41;20.70;99.90
52769;DHT22;40471;44.534;18.644;2023-08-06T04:02:07;21.40;99.90
52769;DHT22;40471;44.534;18.644;2023-08-06T04:04:32;21.20;99.90
52769;DHT22;40471;44.534;18.644;2023-08-06T04:06:58;21.20;99.90
52769;DHT22;40471;44.534;18.644;2023-08-06T04:09:23;21.10;99.90
52769;DHT22;40471;44.534;18.644;2023-08-06T04:11:49;21.10;99.90
52769;DHT22;40471;44.534;18.644;2023-08-06T04:14:15;21.20;99.90
52769;DHT22;40471;44.534;18.644;2023-08-06T04:16:40;21.20;99.90
52769;DHT22;40471;44.534;18.644;2023-08-06T04:19:06;21.30;99.90
52769;DHT22;40471;44.534;18.644;2023-08-06T04:21:31;21.30;99.90
52769;DHT22;40471;44.534;18.644;2023-08-06T04:23:57;21.20;99.90
52769;DHT22;40471;44.534;18.644;2023-08-06T04:26:23;21.20;99.90
52769;DHT22;40471;44.534;18.644;2023-08-06T04:28:48;21.30;99.90
52769;DHT22;40471;44.534;18.644;2023-08-06T04:31:14;21.30;99.90
52769;DHT22;40471;44.534;18.644;2023-08-06T04:33:40;21.30;99.90
52769;DHT22;40471;44.534;18.644;2023-08-06T04:36:06;21.40;99.90
52769;DHT22;40471;44.534;18.644;2023-08-06T04:38:31;21.40;99.90
52769;DHT22;40471;44.534;18.644;2023-08-06T04:40:57;21.30;99.90
52769;DHT22;40471;44.534;18.644;2023-08-06T04:43:23;21.30;99.90
52769;DHT22;40471;44.534;18.644;2023-08-06T04:45:49;21.30;99.90
52769;DHT22;40471;44.534;18.644;2023-08-06T04:48:15;21.40;99.90
52769;DHT22;40471;44.534;18.644;2023-08-06T04:50:44;21.40;99.90
52769;DHT22;40471;44.534;18.644;2023-08-06T04:53:10;21.40;99.90
52769;DHT22;40471;44.534;18.644;2023-08-06T04:55:36;21.30;99.90
52769;DHT22;40471;44.534;18.644;2023-08-06T04:58:01;21.30;99.90
52769;DHT22;40471;44.534;18.644;2023-08-06T05:00:27;21.30;99.90
52769;DHT22;40471;44.534;18.644;2023-08-06T05:02:53;21.40;99.90
52769;DHT22;40471;44.534;18.644;2023-08-06T05:05:18;21.40;99.90
52769;DHT22;40471;44.534;18.644;2023-08-06T05:07:45;21.00;99.90
52769;DHT22;40471;44.534;18.644;2023-08-06T05:10:11;21.50;99.90
52769;DHT22;40471;44.534;18.644;2023-08-06T05:12:36;21.60;99.90
52769;DHT22;40471;44.534;18.644;2023-08-06T05:15:02;21.60;99.90
52769;DHT22;40471;44.534;18.644;2023-08-06T05:17:28;21.60;99.90
52769;DHT22;40471;44.534;18.644;2023-08-06T05:19:53;21.60;99.90
52769;DHT22;40471;44.534;18.644;2023-08-06T05:22:19;21.50;99.90
52769;DHT22;40471;44.534;18.644;2023-08-06T05:24:44;21.60;99.90
52769;DHT22;40471;44.534;18.644;2023-08-06T05:27:10;21.60;99.90
52769;DHT22;40471;44.534;18.644;2023-08-06T05:29:35;21.70;99.90
52769;DHT22;40471;44.534;18.644;2023-08-06T05:32:01;21.80;99.90
52769;DHT22;40471;44.534;18.644;2023-08-06T05:34:27;21.90;99.90
52769;DHT22;40471;44.534;18.644;2023-08-06T05:36:52;22.00;99.90
52769;DHT22;40471;44.534;18.644;2023-08-06T05:39:18;22.20;99.90
52769;DHT22;40471;44.534;18.644;2023-08-06T05:41:43;22.10;99.90
52769;DHT22;40471;44.534;18.644;2023-08-06T05:44:09;22.20;99.90
52769;DHT22;40471;44.534;18.644;2023-08-06T05:46:35;22.70;99.90
52769;DHT22;40471;44.534;18.644;2023-08-06T05:49:00;22.40;99.90
52769;DHT22;40471;44.534;18.644;2023-08-06T05:51:26;22.50;99.90
52769;DHT22;40471;44.534;18.644;2023-08-06T05:53:52;22.40;99.90
52769;DHT22;40471;44.534;18.644;2023-08-06T05:56:17;22.40;99.90
52769;DHT22;40471;44.534;18.644;2023-08-06T05:58:43;22.30;99.90
52769;DHT22;40471;44.534;18.644;2023-08-06T06:01:09;22.30;99.90
52769;DHT22;40471;44.534;18.644;2023-08-06T06:03:34;22.40;99.90
52769;DHT22;40471;44.534;18.644;2023-08-06T06:06:03;22.30;99.90
52769;DHT22;40471;44.534;18.644;2023-08-06T06:08:28;22.60;99.90
52769;DHT22;40471;44.534;18.644;2023-08-06T06:10:54;22.70;99.90
52769;DHT22;40471;44.534;18.644;2023-08-06T06:13:20;22.80;99.90
52769;DHT22;40471;44.534;18.644;2023-08-06T06:15:48;22.80;99.90
52769;DHT22;40471;44.534;18.644;2023-08-06T06:18:14;22.80;99.90
52769;DHT22;40471;44.534;18.644;2023-08-06T06:20:39;23.00;99.90
52769;DHT22;40471;44.534;18.644;2023-08-06T06:23:05;22.70;99.90
52769;DHT22;40471;44.534;18.644;2023-08-06T06:25:31;23.00;99.90
52769;DHT22;40471;44.534;18.644;2023-08-06T06:27:56;23.20;99.90
52769;DHT22;40471;44.534;18.644;2023-08-06T06:30:24;23.40;99.90
52769;DHT22;40471;44.534;18.644;2023-08-06T06:32:49;23.40;99.90
52769;DHT22;40471;44.534;18.644;2023-08-06T06:35:15;23.80;99.90
52769;DHT22;40471;44.534;18.644;2023-08-06T06:37:40;24.10;99.90
52769;DHT22;40471;44.534;18.644;2023-08-06T06:40:06;24.00;99.90
52769;DHT22;40471;44.534;18.644;2023-08-06T06:42:32;25.20;99.90
52769;DHT22;40471;44.534;18.644;2023-08-06T06:44:57;24.40;99.90
52769;DHT22;40471;44.534;18.644;2023-08-06T06:47:23;24.30;99.90
52769;DHT22;40471;44.534;18.644;2023-08-06T06:49:49;25.40;99.90
52769;DHT22;40471;44.534;18.644;2023-08-06T06:52:14;24.50;99.90
52769;DHT22;40471;44.534;18.644;2023-08-06T06:54:40;25.10;99.90
52769;DHT22;40471;44.534;18.644;2023-08-06T06:57:06;27.70;99.90
52769;DHT22;40471;44.534;18.644;2023-08-06T06:59:31;29.60;99.90
52769;DHT22;40471;44.534;18.644;2023-08-06T07:01:57;29.30;99.90
52769;DHT22;40471;44.534;18.644;2023-08-06T07:04:23;28.70;99.90
52769;DHT22;40471;44.534;18.644;2023-08-06T07:06:48;28.60;99.90
52769;DHT22;40471;44.534;18.644;2023-08-06T07:09:14;29.10;99.90
52769;DHT22;40471;44.534;18.644;2023-08-06T07:11:40;29.70;99.90
52769;DHT22;40471;44.534;18.644;2023-08-06T07:14:08;30.00;99.90
52769;DHT22;40471;44.534;18.644;2023-08-06T07:16:34;29.40;99.90
52769;DHT22;40471;44.534;18.644;2023-08-06T07:19:00;29.10;99.90
52769;DHT22;40471;44.534;18.644;2023-08-06T07:21:25;29.20;99.90
52769;DHT22;40471;44.534;18.644;2023-08-06T07:23:51;28.80;99.90
52769;DHT22;40471;44.534;18.644;2023-08-06T07:26:17;28.70;99.90
52769;DHT22;40471;44.534;18.644;2023-08-06T07:28:43;29.20;99.90
52769;DHT22;40471;44.534;18.644;2023-08-06T07:31:09;30.50;99.90
52769;DHT22;40471;44.534;18.644;2023-08-06T07:33:35;31.20;99.90
52769;DHT22;40471;44.534;18.644;2023-08-06T07:36:07;31.60;96.50
52769;DHT22;40471;44.534;18.644;2023-08-06T07:38:33;30.80;96.10
52769;DHT22;40471;44.534;18.644;2023-08-06T07:41:01;30.40;98.00
52769;DHT22;40471;44.534;18.644;2023-08-06T07:43:26;29.80;98.20
52769;DHT22;40471;44.534;18.644;2023-08-06T07:45:52;29.60;98.30
52769;DHT22;40471;44.534;18.644;2023-08-06T07:48:17;29.30;98.90
52769;DHT22;40471;44.534;18.644;2023-08-06T07:50:43;29.00;99.00
52769;DHT22;40471;44.534;18.644;2023-08-06T07:53:15;28.60;99.90
52769;DHT22;40471;44.534;18.644;2023-08-06T07:55:41;28.20;99.90
52769;DHT22;40471;44.534;18.644;2023-08-06T07:58:06;28.20;99.90
52769;DHT22;40471;44.534;18.644;2023-08-06T08:00:32;28.40;99.90
52769;DHT22;40471;44.534;18.644;2023-08-06T08:02:58;28.50;99.90
52769;DHT22;40471;44.534;18.644;2023-08-06T08:05:24;28.30;99.90
52769;DHT22;40471;44.534;18.644;2023-08-06T08:07:49;28.00;99.90
52769;DHT22;40471;44.534;18.644;2023-08-06T08:10:15;28.00;99.90
52769;DHT22;40471;44.534;18.644;2023-08-06T08:12:41;28.00;99.90
52769;DHT22;40471;44.534;18.644;2023-08-06T08:15:08;28.00;99.90
52769;DHT22;40471;44.534;18.644;2023-08-06T08:17:33;27.80;99.90
52769;DHT22;40471;44.534;18.644;2023-08-06T08:19:59;27.80;99.90
52769;DHT22;40471;44.534;18.644;2023-08-06T08:22:25;27.70;99.90
52769;DHT22;40471;44.534;18.644;2023-08-06T08:24:51;28.00;99.90
52769;DHT22;40471;44.534;18.644;2023-08-06T08:27:16;29.10;99.90
52769;DHT22;40471;44.534;18.644;2023-08-06T08:29:42;30.10;99.90
52769;DHT22;40471;44.534;18.644;2023-08-06T08:32:08;30.20;98.60
52769;DHT22;40471;44.534;18.644;2023-08-06T08:34:33;31.20;97.40
52769;DHT22;40471;44.534;18.644;2023-08-06T08:36:59;31.90;97.60
52769;DHT22;40471;44.534;18.644;2023-08-06T08:39:25;32.80;95.50
52769;DHT22;40471;44.534;18.644;2023-08-06T08:41:50;32.60;92.40
52769;DHT22;40471;44.534;18.644;2023-08-06T08:44:16;32.20;93.40
52769;DHT22;40471;44.534;18.644;2023-08-06T08:46:42;31.50;92.30
52769;DHT22;40471;44.534;18.644;2023-08-06T08:49:08;31.90;92.50
52769;DHT22;40471;44.534;18.644;2023-08-06T08:51:34;33.00;91.20
52769;DHT22;40471;44.534;18.644;2023-08-06T08:54:02;33.70;90.40
52769;DHT22;40471;44.534;18.644;2023-08-06T08:56:28;33.90;86.60
52769;DHT22;40471;44.534;18.644;2023-08-06T08:58:53;34.70;85.70
52769;DHT22;40471;44.534;18.644;2023-08-06T09:01:21;35.30;82.40
52769;DHT22;40471;44.534;18.644;2023-08-06T09:03:47;36.00;80.20
52769;DHT22;40471;44.534;18.644;2023-08-06T09:06:13;36.30;76.30
52769;DHT22;40471;44.534;18.644;2023-08-06T09:08:41;37.00;75.20
52769;DHT22;40471;44.534;18.644;2023-08-06T09:11:09;36.60;74.30
52769;DHT22;40471;44.534;18.644;2023-08-06T09:13:39;35.80;73.40
52769;DHT22;40471;44.534;18.644;2023-08-06T09:16:04;35.50;73.00
52769;DHT22;40471;44.534;18.644;2023-08-06T09:18:30;35.50;71.20
52769;DHT22;40471;44.534;18.644;2023-08-06T09:20:57;35.50;70.80
52769;DHT22;40471;44.534;18.644;2023-08-06T09:23:32;35.80;70.60
52769;DHT22;40471;44.534;18.644;2023-08-06T09:25:59;36.10;71.20
52769;DHT22;40471;44.534;18.644;2023-08-06T09:28:24;36.30;68.30
52769;DHT22;40471;44.534;18.644;2023-08-06T09:30:51;36.10;70.60
52769;DHT22;40471;44.534;18.644;2023-08-06T09:33:20;35.80;69.40
52769;DHT22;40471;44.534;18.644;2023-08-06T09:35:47;35.50;70.50
52769;DHT22;40471;44.534;18.644;2023-08-06T09:38:13;35.70;71.70
52769;DHT22;40471;44.534;18.644;2023-08-06T09:40:39;36.20;70.90
52769;DHT22;40471;44.534;18.644;2023-08-06T09:43:05;35.80;67.50
52769;DHT22;40471;44.534;18.644;2023-08-06T09:45:32;34.80;68.90
52769;DHT22;40471;44.534;18.644;2023-08-06T09:47:58;34.60;70.40
52769;DHT22;40471;44.534;18.644;2023-08-06T09:50:28;33.80;69.80
52769;DHT22;40471;44.534;18.644;2023-08-06T09:52:55;33.10;70.60
52769;DHT22;40471;44.534;18.644;2023-08-06T09:55:21;32.60;71.80
52769;DHT22;40471;44.534;18.644;2023-08-06T09:57:47;32.20;72.60
52769;DHT22;40471;44.534;18.644;2023-08-06T10:00:13;31.90;73.90
52769;DHT22;40471;44.534;18.644;2023-08-06T10:02:39;31.60;75.40
52769;DHT22;40471;44.534;18.644;2023-08-06T10:05:05;31.60;76.50
52769;DHT22;40471;44.534;18.644;2023-08-06T10:07:31;31.80;76.00
52769;DHT22;40471;44.534;18.644;2023-08-06T10:09:57;31.90;75.10
52769;DHT22;40471;44.534;18.644;2023-08-06T10:12:23;32.40;76.40
52769;DHT22;40471;44.534;18.644;2023-08-06T10:14:50;32.80;74.30
52769;DHT22;40471;44.534;18.644;2023-08-06T10:17:18;33.30;76.00
52769;DHT22;40471;44.534;18.644;2023-08-06T10:19:43;34.10;74.50
52769;DHT22;40471;44.534;18.644;2023-08-06T10:22:10;34.50;71.70
52769;DHT22;40471;44.534;18.644;2023-08-06T10:24:51;34.00;71.00
52769;DHT22;40471;44.534;18.644;2023-08-06T10:27:28;33.80;70.70
52769;DHT22;40471;44.534;18.644;2023-08-06T10:29:54;33.10;71.00
52769;DHT22;40471;44.534;18.644;2023-08-06T10:32:20;32.80;71.50
52769;DHT22;40471;44.534;18.644;2023-08-06T10:34:53;32.60;71.90
52769;DHT22;40471;44.534;18.644;2023-08-06T10:37:20;32.70;71.50
52769;DHT22;40471;44.534;18.644;2023-08-06T10:39:50;32.80;72.20
52769;DHT22;40471;44.534;18.644;2023-08-06T10:42:20;32.80;73.10
52769;DHT22;40471;44.534;18.644;2023-08-06T10:56:40;32.20;74.00
52769;DHT22;40471;44.534;18.644;2023-08-06T10:59:14;32.40;74.30
52769;DHT22;40471;44.534;18.644;2023-08-06T11:01:40;32.00;73.20
52769;DHT22;40471;44.534;18.644;2023-08-06T11:04:06;32.00;73.40
52769;DHT22;40471;44.534;18.644;2023-08-06T11:06:32;32.00;73.50
52769;DHT22;40471;44.534;18.644;2023-08-06T11:09:01;31.60;74.50
52769;DHT22;40471;44.534;18.644;2023-08-06T11:11:27;31.00;75.00
52769;DHT22;40471;44.534;18.644;2023-08-06T11:13:54;30.70;76.50
52769;DHT22;40471;44.534;18.644;2023-08-06T11:16:23;30.40;80.30
52769;DHT22;40471;44.534;18.644;2023-08-06T11:18:52;29.90;79.00
52769;DHT22;40471;44.534;18.644;2023-08-06T11:21:20;29.50;78.50
52769;DHT22;40471;44.534;18.644;2023-08-06T11:23:48;29.10;79.70
52769;DHT22;40471;44.534;18.644;2023-08-06T11:26:18;28.90;80.80
52769;DHT22;40471;44.534;18.644;2023-08-06T11:28:44;28.60;80.80
52769;DHT22;40471;44.534;18.644;2023-08-06T11:31:18;28.20;81.90
52769;DHT22;40471;44.534;18.644;2023-08-06T11:33:43;27.80;83.70
52769;DHT22;40471;44.534;18.644;2023-08-06T11:36:09;27.40;89.80
52769;DHT22;40471;44.534;18.644;2023-08-06T11:38:37;27.20;92.20
52769;DHT22;40471;44.534;18.644;2023-08-06T11:41:03;27.00;92.40
52769;DHT22;40471;44.534;18.644;2023-08-06T11:43:30;26.80;93.40
52769;DHT22;40471;44.534;18.644;2023-08-06T11:45:56;26.70;94.10
52769;DHT22;40471;44.534;18.644;2023-08-06T11:48:21;26.50;94.20
52769;DHT22;40471;44.534;18.644;2023-08-06T11:50:47;26.20;95.20
52769;DHT22;40471;44.534;18.644;2023-08-06T11:53:15;26.00;96.20
52769;DHT22;40471;44.534;18.644;2023-08-06T11:55:44;25.80;97.20
52769;DHT22;40471;44.534;18.644;2023-08-06T11:58:10;25.50;98.80
52769;DHT22;40471;44.534;18.644;2023-08-06T12:00:41;24.90;99.20
52769;DHT22;40471;44.534;18.644;2023-08-06T12:03:07;24.40;99.90
52769;DHT22;40471;44.534;18.644;2023-08-06T12:05:35;24.00;99.90
52769;DHT22;40471;44.534;18.644;2023-08-06T12:08:01;23.70;99.90
52769;DHT22;40471;44.534;18.644;2023-08-06T12:10:36;23.60;99.90
52769;DHT22;40471;44.534;18.644;2023-08-06T12:13:01;23.40;99.90
52769;DHT22;40471;44.534;18.644;2023-08-06T12:15:28;23.30;99.90
52769;DHT22;40471;44.534;18.644;2023-08-06T12:17:54;23.10;99.90
52769;DHT22;40471;44.534;18.644;2023-08-06T12:20:22;22.90;99.90
52769;DHT22;40471;44.534;18.644;2023-08-06T12:22:48;22.70;99.90
52769;DHT22;40471;44.534;18.644;2023-08-06T12:25:16;22.60;99.90
52769;DHT22;40471;44.534;18.644;2023-08-06T12:27:42;22.50;99.90
52769;DHT22;40471;44.534;18.644;2023-08-06T12:30:11;22.40;99.90
52769;DHT22;40471;44.534;18.644;2023-08-06T12:32:40;22.50;99.90
52769;DHT22;40471;44.534;18.644;2023-08-06T12:35:05;22.30;99.90
52769;DHT22;40471;44.534;18.644;2023-08-06T12:37:33;22.50;99.90
52769;DHT22;40471;44.534;18.644;2023-08-06T12:39:58;22.70;99.90
52769;DHT22;40471;44.534;18.644;2023-08-06T12:42:24;22.40;99.90
52769;DHT22;40471;44.534;18.644;2023-08-06T12:44:50;22.10;99.90
52769;DHT22;40471;44.534;18.644;2023-08-06T12:47:16;21.90;99.90
52769;DHT22;40471;44.534;18.644;2023-08-06T12:49:41;21.70;99.90
52769;DHT22;40471;44.534;18.644;2023-08-06T12:52:07;21.70;99.90
52769;DHT22;40471;44.534;18.644;2023-08-06T12:54:40;21.70;99.90
52769;DHT22;40471;44.534;18.644;2023-08-06T12:57:09;21.70;99.90
52769;DHT22;40471;44.534;18.644;2023-08-06T12:59:34;21.70;99.90
52769;DHT22;40471;44.534;18.644;2023-08-06T13:02:02;21.90;99.90
52769;DHT22;40471;44.534;18.644;2023-08-06T13:04:27;21.90;99.90
52769;DHT22;40471;44.534;18.644;2023-08-06T13:06:55;22.00;99.90
52769;DHT22;40471;44.534;18.644;2023-08-06T13:09:23;22.10;99.90
52769;DHT22;40471;44.534;18.644;2023-08-06T13:11:50;22.20;99.90
52769;DHT22;40471;44.534;18.644;2023-08-06T13:14:15;22.40;99.90
52769;DHT22;40471;44.534;18.644;2023-08-06T13:16:44;22.60;99.90
52769;DHT22;40471;44.534;18.644;2023-08-06T13:19:10;22.60;99.90
52769;DHT22;40471;44.534;18.644;2023-08-06T13:24:07;23.30;99.90
52769;DHT22;40471;44.534;18.644;2023-08-06T13:26:33;23.30;99.90
52769;DHT22;40471;44.534;18.644;2023-08-06T13:28:59;22.90;99.90
52769;DHT22;40471;44.534;18.644;2023-08-06T13:31:25;22.60;99.90
52769;DHT22;40471;44.534;18.644;2023-08-06T13:33:54;22.40;99.90
52769;DHT22;40471;44.534;18.644;2023-08-06T13:36:21;22.20;99.90
52769;DHT22;40471;44.534;18.644;2023-08-06T13:38:47;22.20;99.90
52769;DHT22;40471;44.534;18.644;2023-08-06T13:41:12;22.10;99.90
52769;DHT22;40471;44.534;18.644;2023-08-06T13:43:41;22.10;99.90
52769;DHT22;40471;44.534;18.644;2023-08-06T13:46:07;22.00;99.90
52769;DHT22;40471;44.534;18.644;2023-08-06T13:48:32;21.90;99.90
52769;DHT22;40471;44.534;18.644;2023-08-06T13:50:58;21.80;99.90
52769;DHT22;40471;44.534;18.644;2023-08-06T13:53:24;21.90;99.90
52769;DHT22;40471;44.534;18.644;2023-08-06T13:55:55;21.70;99.90
52769;DHT22;40471;44.534;18.644;2023-08-06T13:58:24;21.80;99.90
52769;DHT22;40471;44.534;18.644;2023-08-06T14:00:51;21.80;99.90
52769;DHT22;40471;44.534;18.644;2023-08-06T14:03:18;21.80;99.90
52769;DHT22;40471;44.534;18.644;2023-08-06T14:05:44;21.80;99.90
52769;DHT22;40471;44.534;18.644;2023-08-06T14:08:10;21.90;99.90
52769;DHT22;40471;44.534;18.644;2023-08-06T14:10:35;21.90;99.90
52769;DHT22;40471;44.534;18.644;2023-08-06T14:13:01;21.90;99.90
52769;DHT22;40471;44.534;18.644;2023-08-06T14:15:26;22.00;99.90
52769;DHT22;40471;44.534;18.644;2023-08-06T14:17:52;21.90;99.90
52769;DHT22;40471;44.534;18.644;2023-08-06T14:20:18;22.10;99.90
52769;DHT22;40471;44.534;18.644;2023-08-06T14:22:43;22.10;99.90
52769;DHT22;40471;44.534;18.644;2023-08-06T14:25:09;22.30;99.90
52769;DHT22;40471;44.534;18.644;2023-08-06T14:27:35;22.40;99.90
52769;DHT22;40471;44.534;18.644;2023-08-06T14:30:00;22.50;99.90
52769;DHT22;40471;44.534;18.644;2023-08-06T14:32:29;22.70;99.90
52769;DHT22;40471;44.534;18.644;2023-08-06T14:34:54;22.70;99.90
52769;DHT22;40471;44.534;18.644;2023-08-06T14:37:23;22.80;99.90
52769;DHT22;40471;44.534;18.644;2023-08-06T14:39:49;22.90;99.90
52769;DHT22;40471;44.534;18.644;2023-08-06T14:42:14;22.80;99.90
52769;DHT22;40471;44.534;18.644;2023-08-06T14:44:40;22.70;99.90
52769;DHT22;40471;44.534;18.644;2023-08-06T14:47:06;22.60;99.90
52769;DHT22;40471;44.534;18.644;2023-08-06T14:49:32;22.50;99.90
52769;DHT22;40471;44.534;18.644;2023-08-06T14:52:00;22.40;99.90
52769;DHT22;40471;44.534;18.644;2023-08-06T14:54:27;22.30;99.90
52769;DHT22;40471;44.534;18.644;2023-08-06T14:56:53;22.30;99.90
52769;DHT22;40471;44.534;18.644;2023-08-06T14:59:18;22.20;99.90
52769;DHT22;40471;44.534;18.644;2023-08-06T15:01:44;22.20;99.90
52769;DHT22;40471;44.534;18.644;2023-08-06T15:04:09;22.10;99.90
52769;DHT22;40471;44.534;18.644;2023-08-06T15:06:35;21.90;99.90
52769;DHT22;40471;44.534;18.644;2023-08-06T15:09:01;21.60;99.90
52769;DHT22;40471;44.534;18.644;2023-08-06T15:11:26;21.10;99.90
52769;DHT22;40471;44.534;18.644;2023-08-06T15:13:52;21.00;99.90
52769;DHT22;40471;44.534;18.644;2023-08-06T15:16:18;21.10;99.90
52769;DHT22;40471;44.534;18.644;2023-08-06T15:18:43;21.20;99.90
52769;DHT22;40471;44.534;18.644;2023-08-06T15:21:09;21.40;99.90
52769;DHT22;40471;44.534;18.644;2023-08-06T15:23:35;21.60;99.90
52769;DHT22;40471;44.534;18.644;2023-08-06T15:26:01;22.70;99.90